createdAt,value
2023-03-24T00:01:56.212Z,5.46
2023-03-24T00:04:25.073Z,5.51
2023-03-24T00:06:54.062Z,5.52
2023-03-24T00:09:20.751Z,5.45
2023-03-24T00:11:47.953Z,5.33
2023-03-24T00:14:14.817Z,5.18
2023-03-24T00:16:45.596Z,5.15
2023-03-24T00:19:16.079Z,5.28
2023-03-24T00:21:44.186Z,5.14
2023-03-24T00:24:12.800Z,5.01
2023-03-24T00:26:41.378Z,4.93
2023-03-24T00:29:11.313Z,4.85
2023-03-24T00:31:41.509Z,4.83
2023-03-24T00:34:09.392Z,4.69
2023-03-24T00:36:37.209Z,4.47
2023-03-24T00:39:06.524Z,4.99
2023-03-24T00:41:33.616Z,5.06
2023-03-24T00:44:03.778Z,5.04
2023-03-24T00:46:31.062Z,5.04
2023-03-24T00:49:07.637Z,4.53
2023-03-24T00:51:40.398Z,4.87
2023-03-24T00:54:09.684Z,4.86
2023-03-24T00:56:40.853Z,4.85
2023-03-24T00:59:09.946Z,4.78
2023-03-24T01:01:39.022Z,4.85
2023-03-24T01:04:06.502Z,4.79
2023-03-24T01:06:36.657Z,4.82
2023-03-24T01:09:05.667Z,4.80
2023-03-24T01:11:38.843Z,4.99
2023-03-24T01:14:06.371Z,4.70
2023-03-24T01:16:33.188Z,4.63
2023-03-24T01:19:00.680Z,4.65
2023-03-24T01:21:27.976Z,4.38
2023-03-24T01:23:54.884Z,4.87
2023-03-24T01:26:21.680Z,4.85
2023-03-24T01:28:48.450Z,4.75
2023-03-24T01:31:15.479Z,4.94
2023-03-24T01:33:42.679Z,4.78
2023-03-24T01:36:09.817Z,4.73
2023-03-24T01:38:36.882Z,4.71
2023-03-24T01:41:05.329Z,4.70
2023-03-24T01:43:34.030Z,4.69
2023-03-24T01:46:08.271Z,4.80
2023-03-24T01:49:02.420Z,4.85
2023-03-24T01:51:42.107Z,4.81
2023-03-24T01:54:25.331Z,4.76
2023-03-24T01:57:04.232Z,4.50
2023-03-24T01:59:34.216Z,4.71
2023-03-24T02:02:04.318Z,4.78
2023-03-24T02:04:38.876Z,4.70
2023-03-24T02:07:33.237Z,4.73
2023-03-24T02:10:03.703Z,4.79
2023-03-24T02:12:32.777Z,4.84
2023-03-24T02:15:00.879Z,4.89
2023-03-24T02:17:57.277Z,4.79
2023-03-24T02:20:54.645Z,4.84
2023-03-24T02:23:42.482Z,4.85
2023-03-24T02:26:24.164Z,4.82
2023-03-24T02:28:59.668Z,4.79
2023-03-24T02:31:45.506Z,4.75
2023-03-24T02:34:12.220Z,4.75
2023-03-24T02:36:48.974Z,4.79
2023-03-24T02:39:38.085Z,4.83
2023-03-24T02:42:28.516Z,4.75
2023-03-24T02:45:43.893Z,4.74
2023-03-24T02:48:32.252Z,4.81
2023-03-24T02:51:14.737Z,4.61
2023-03-24T02:53:49.241Z,4.84
2023-03-24T02:56:24.950Z,4.88
2023-03-24T02:59:06.510Z,4.84
2023-03-24T03:01:38.008Z,5.06
2023-03-24T03:04:12.955Z,4.92
2023-03-24T03:06:43.845Z,5.13
2023-03-24T03:09:15.338Z,5.29
2023-03-24T03:11:47.647Z,5.30
2023-03-24T03:14:34.413Z,5.27
2023-03-24T03:17:08.061Z,4.89
2023-03-24T03:19:40.722Z,5.13
2023-03-24T03:22:15.885Z,5.07
2023-03-24T03:24:50.446Z,5.04
2023-03-24T03:27:22.862Z,4.84
2023-03-24T03:29:54.709Z,4.83
2023-03-24T03:32:28.487Z,4.59
2023-03-24T03:35:00.005Z,4.54
2023-03-24T03:37:35.152Z,4.51
2023-03-24T03:40:12.286Z,4.38
2023-03-24T03:42:40.211Z,4.40
2023-03-24T03:45:11.354Z,4.46
2023-03-24T03:47:38.307Z,4.39
2023-03-24T03:50:07.614Z,4.36
2023-03-24T03:52:35.683Z,4.18
2023-03-24T03:55:03.874Z,4.10
2023-03-24T03:57:30.987Z,4.03
2023-03-24T03:59:58.947Z,3.65
2023-03-24T04:02:37.089Z,3.98
2023-03-24T04:05:26.236Z,3.96
2023-03-24T04:08:08.469Z,3.75
2023-03-24T04:10:44.341Z,3.83
2023-03-24T04:13:41.793Z,3.92
2023-03-24T04:16:12.384Z,4.01
2023-03-24T04:19:00.472Z,4.09
2023-03-24T04:21:55.291Z,4.01
2023-03-24T04:25:16.164Z,3.74
2023-03-24T04:27:46.654Z,3.88
2023-03-24T04:30:23.949Z,3.94
2023-03-24T04:33:05.564Z,3.91
2023-03-24T04:35:47.012Z,3.70
2023-03-24T04:38:23.198Z,3.95
2023-03-24T04:40:52.173Z,4.01
2023-03-24T04:43:25.211Z,4.24
2023-03-24T04:45:58.072Z,4.29
2023-03-24T04:48:26.270Z,4.28
2023-03-24T04:51:00.247Z,4.25
2023-03-24T04:53:27.950Z,4.02
2023-03-24T04:56:04.923Z,4.34
2023-03-24T04:58:33.176Z,4.33
2023-03-24T05:00:59.934Z,4.44
2023-03-24T05:03:26.931Z,4.57
2023-03-24T05:05:53.673Z,4.45
2023-03-24T05:08:20.956Z,4.51
2023-03-24T05:10:48.300Z,4.48
2023-03-24T05:13:15.925Z,4.69
2023-03-24T05:15:43.065Z,4.87
2023-03-24T05:18:09.975Z,5.11
2023-03-24T05:20:36.712Z,5.19
2023-03-24T05:23:03.522Z,6.04
2023-03-24T05:25:30.380Z,7.11
2023-03-24T05:27:57.022Z,8.30
2023-03-24T05:30:23.859Z,9.14
2023-03-24T05:32:50.836Z,9.39
2023-03-24T05:35:17.571Z,9.85
2023-03-24T05:37:44.543Z,10.01
2023-03-24T05:40:11.974Z,10.31
2023-03-24T05:42:38.603Z,10.59
2023-03-24T05:45:06.527Z,11.04
2023-03-24T05:47:33.244Z,11.05
2023-03-24T05:50:01.255Z,10.99
2023-03-24T05:52:29.066Z,10.55
2023-03-24T05:54:55.918Z,10.63
2023-03-24T05:57:22.954Z,10.61
2023-03-24T05:59:50.061Z,10.05
2023-03-24T06:02:16.739Z,9.95
2023-03-24T06:04:49.079Z,9.41
2023-03-24T06:07:16.803Z,9.62
2023-03-24T06:09:47.126Z,9.41
2023-03-24T06:12:16.279Z,9.38
2023-03-24T06:14:43.169Z,9.12
2023-03-24T06:17:14.880Z,9.30
2023-03-24T06:19:49.956Z,9.27
2023-03-24T06:22:20.891Z,9.21
2023-03-24T06:24:47.908Z,9.19
2023-03-24T06:27:14.704Z,8.79
2023-03-24T06:29:44.837Z,8.99
2023-03-24T06:32:11.773Z,9.05
2023-03-24T06:34:40.587Z,9.24
2023-03-24T06:37:07.355Z,9.24
2023-03-24T06:39:33.988Z,9.36
2023-03-24T06:42:00.649Z,9.68
2023-03-24T06:44:27.441Z,9.50
2023-03-24T06:46:54.238Z,9.53
2023-03-24T06:49:21.000Z,9.74
2023-03-24T06:51:47.645Z,9.89
2023-03-24T06:54:14.277Z,9.63
2023-03-24T06:56:41.807Z,9.81
2023-03-24T06:59:09.079Z,9.60
2023-03-24T07:01:36.494Z,10.08
2023-03-24T07:04:03.769Z,10.22
2023-03-24T07:06:31.022Z,10.19
2023-03-24T07:08:58.293Z,10.26
2023-03-24T07:11:25.237Z,10.30
2023-03-24T07:13:51.961Z,10.33
2023-03-24T07:16:18.759Z,10.54
2023-03-24T07:18:45.462Z,10.70
2023-03-24T07:21:12.253Z,10.72
2023-03-24T07:23:38.947Z,10.42
2023-03-24T07:26:06.333Z,10.53
2023-03-24T07:28:33.054Z,10.93
2023-03-24T07:31:03.653Z,11.11
2023-03-24T07:33:31.756Z,11.21
2023-03-24T07:35:59.686Z,11.59
2023-03-24T07:38:26.941Z,11.61
2023-03-24T07:40:54.014Z,11.77
2023-03-24T07:43:21.943Z,12.36
2023-03-24T07:45:48.998Z,13.12
2023-03-24T07:48:16.126Z,13.33
2023-03-24T07:50:43.043Z,13.34
2023-03-24T07:53:09.884Z,13.54
2023-03-24T07:55:38.659Z,13.83
2023-03-24T07:58:05.858Z,13.36
2023-03-24T08:00:33.800Z,12.71
2023-03-24T08:03:01.068Z,12.17
2023-03-24T08:05:30.157Z,12.43
2023-03-24T08:07:58.856Z,12.45
2023-03-24T08:10:30.139Z,11.95
2023-03-24T08:12:57.752Z,12.18
2023-03-24T08:15:25.177Z,12.44
2023-03-24T08:17:52.537Z,12.47
2023-03-24T08:20:21.421Z,12.87
2023-03-24T08:22:49.981Z,12.59
2023-03-24T08:25:19.193Z,12.69
2023-03-24T08:27:47.445Z,12.93
2023-03-24T08:30:17.112Z,12.32
2023-03-24T08:32:49.038Z,12.60
2023-03-24T08:35:18.829Z,12.63
2023-03-24T08:37:45.791Z,12.59
2023-03-24T08:40:19.339Z,13.04
2023-03-24T08:42:54.937Z,13.35
2023-03-24T08:45:24.157Z,13.26
2023-03-24T08:47:52.337Z,13.18
2023-03-24T08:50:21.718Z,13.12
2023-03-24T08:52:48.731Z,13.24
2023-03-24T08:55:16.660Z,13.68
2023-03-24T08:57:43.673Z,13.76
2023-03-24T09:00:15.338Z,13.89
2023-03-24T09:02:47.216Z,13.55
2023-03-24T09:05:15.673Z,13.70
2023-03-24T09:07:44.418Z,14.01
2023-03-24T09:10:11.691Z,14.03
2023-03-24T09:12:39.326Z,14.42
2023-03-24T09:15:11.769Z,14.44
2023-03-24T09:17:40.492Z,14.67
2023-03-24T09:20:13.046Z,14.49
2023-03-24T09:22:44.120Z,15.14
2023-03-24T09:25:13.796Z,15.23
2023-03-24T09:27:41.064Z,15.30
2023-03-24T09:30:09.589Z,15.56
2023-03-24T09:32:36.668Z,15.70
2023-03-24T09:35:03.837Z,15.94
2023-03-24T09:37:32.042Z,15.91
2023-03-24T09:40:00.221Z,15.77
2023-03-24T09:42:30.482Z,15.79
2023-03-24T09:44:59.224Z,16.15
2023-03-24T09:47:42.158Z,16.19
2023-03-24T09:50:25.093Z,15.87
2023-03-24T09:53:04.759Z,16.04
2023-03-24T09:55:31.468Z,16.63
2023-03-24T09:58:05.254Z,16.74
2023-03-24T10:00:33.520Z,16.86
2023-03-24T10:03:19.849Z,16.85
2023-03-24T10:06:18.440Z,17.17
2023-03-24T10:08:54.356Z,16.38
2023-03-24T10:11:36.497Z,17.20
2023-03-24T10:14:24.459Z,17.19
2023-03-24T10:17:17.498Z,16.62
2023-03-24T10:20:02.700Z,17.37
2023-03-24T10:22:38.565Z,17.39
2023-03-24T10:25:35.493Z,17.23
2023-03-24T10:28:30.671Z,17.81
2023-03-24T10:31:02.997Z,17.21
2023-03-24T10:33:31.949Z,17.40
2023-03-24T10:36:11.477Z,17.01
2023-03-24T10:38:39.007Z,17.80
2023-03-24T10:41:07.470Z,17.89
2023-03-24T10:43:34.690Z,17.36
2023-03-24T10:46:02.733Z,17.15
2023-03-24T10:48:43.316Z,17.29
2023-03-24T10:51:19.610Z,18.07
2023-03-24T10:53:48.780Z,17.77
2023-03-24T10:56:38.772Z,18.03
2023-03-24T10:59:18.795Z,17.54
2023-03-24T11:01:46.672Z,17.95
2023-03-24T11:04:19.955Z,17.86
2023-03-24T11:07:02.460Z,18.32
2023-03-24T11:09:30.179Z,17.78
2023-03-24T11:12:02.690Z,18.24
2023-03-24T11:14:31.438Z,18.09
2023-03-24T11:17:16.441Z,17.91
2023-03-24T11:19:57.688Z,18.57
2023-03-24T11:22:25.927Z,18.58
2023-03-24T11:24:56.948Z,18.79
2023-03-24T11:27:23.989Z,18.93
2023-03-24T11:29:55.152Z,18.90
2023-03-24T11:32:28.140Z,19.58
2023-03-24T11:35:06.125Z,19.55
2023-03-24T11:37:36.144Z,19.15
2023-03-24T11:40:18.772Z,19.55
2023-03-24T11:42:51.317Z,19.67
2023-03-24T11:45:23.395Z,19.81
2023-03-24T11:47:54.794Z,20.04
2023-03-24T11:50:30.643Z,19.47
2023-03-24T11:53:08.231Z,19.79
2023-03-24T11:55:58.561Z,20.31
2023-03-24T11:58:33.327Z,20.88
2023-03-24T12:01:22.344Z,21.08
2023-03-24T12:03:59.484Z,20.58
2023-03-24T12:07:08.184Z,21.33
2023-03-24T12:09:55.080Z,21.34
2023-03-24T12:12:38.841Z,20.57
2023-03-24T12:15:47.356Z,20.88
2023-03-24T12:18:56.144Z,21.15
2023-03-24T12:21:41.568Z,21.32
2023-03-24T12:24:26.419Z,21.31
2023-03-24T12:26:58.294Z,21.34
2023-03-24T12:29:49.623Z,21.07
2023-03-24T12:32:16.224Z,21.39
2023-03-24T12:35:18.906Z,21.22
2023-03-24T12:38:17.426Z,21.10
2023-03-24T12:41:17.302Z,21.51
2023-03-24T12:43:46.864Z,21.77
2023-03-24T12:46:40.685Z,22.06
2023-03-24T12:49:27.070Z,22.39
2023-03-24T12:52:25.424Z,21.88
2023-03-24T12:55:05.258Z,22.83
2023-03-24T12:57:41.233Z,22.47
2023-03-24T13:00:16.177Z,22.22
2023-03-24T13:02:53.670Z,22.31
2023-03-24T13:05:38.462Z,22.37
2023-03-24T13:08:29.365Z,22.75
2023-03-24T13:11:07.972Z,22.50
2023-03-24T13:13:43.794Z,22.25
2023-03-24T13:16:20.033Z,21.57
2023-03-24T13:18:53.085Z,21.29
2023-03-24T13:21:22.559Z,20.54
2023-03-24T13:24:13.606Z,20.22
2023-03-24T13:27:05.738Z,20.59
2023-03-24T13:29:41.991Z,20.67
2023-03-24T13:32:22.554Z,20.49
2023-03-24T13:35:19.155Z,20.33
2023-03-24T13:37:51.109Z,20.26
2023-03-24T13:40:25.037Z,20.34
2023-03-24T13:43:17.244Z,19.94
2023-03-24T13:45:53.442Z,20.54
2023-03-24T13:48:35.968Z,20.64
2023-03-24T13:51:21.372Z,21.04
2023-03-24T13:54:09.658Z,21.16
2023-03-24T13:56:42.349Z,21.21
2023-03-24T13:59:25.269Z,21.55
2023-03-24T14:02:21.098Z,21.82
2023-03-24T14:04:55.284Z,22.10
2023-03-24T14:07:43.831Z,22.31
2023-03-24T14:10:16.990Z,22.42
2023-03-24T14:12:53.764Z,22.24
2023-03-24T14:15:36.121Z,22.21
2023-03-24T14:18:24.624Z,22.36
2023-03-24T14:20:57.877Z,22.27
2023-03-24T14:23:32.128Z,21.92
2023-03-24T14:25:59.221Z,22.20
2023-03-24T14:28:32.931Z,22.10
2023-03-24T14:31:10.256Z,21.91
2023-03-24T14:33:38.245Z,21.53
2023-03-24T14:36:06.994Z,21.47
2023-03-24T14:38:38.054Z,20.95
2023-03-24T14:41:29.747Z,21.22
2023-03-24T14:43:59.496Z,21.27
2023-03-24T14:46:43.006Z,21.71
2023-03-24T14:49:12.874Z,21.66
2023-03-24T14:52:06.224Z,21.66
2023-03-24T14:54:39.695Z,21.49
2023-03-24T14:57:09.202Z,21.29
2023-03-24T15:00:01.110Z,21.45
2023-03-24T15:02:39.805Z,21.48
2023-03-24T15:05:23.180Z,20.46
2023-03-24T15:08:08.669Z,20.52
2023-03-24T15:10:43.554Z,19.78
2023-03-24T15:13:30.414Z,20.05
2023-03-24T15:15:57.988Z,20.06
2023-03-24T15:18:28.329Z,19.91
2023-03-24T15:20:55.660Z,19.95
2023-03-24T15:23:31.351Z,20.13
2023-03-24T15:25:58.230Z,20.33
2023-03-24T15:28:28.604Z,19.68
2023-03-24T15:31:01.580Z,19.82
2023-03-24T15:33:31.378Z,20.30
2023-03-24T15:35:59.947Z,20.03
2023-03-24T15:38:33.786Z,20.61
2023-03-24T15:41:07.859Z,19.99
2023-03-24T15:43:43.796Z,20.82
2023-03-24T15:46:27.477Z,20.67
2023-03-24T15:48:56.380Z,20.64
2023-03-24T15:51:49.715Z,20.81
2023-03-24T15:54:23.245Z,20.69
2023-03-24T15:57:23.677Z,20.83
2023-03-24T15:59:57.027Z,20.69
2023-03-24T16:02:42.469Z,20.45
2023-03-24T16:05:28.920Z,19.79
2023-03-24T16:07:59.949Z,20.35
2023-03-24T16:10:40.024Z,19.69
2023-03-24T16:13:17.953Z,20.10
2023-03-24T16:15:48.453Z,19.76
2023-03-24T16:18:19.935Z,19.95
2023-03-24T16:20:47.042Z,19.54
2023-03-24T16:23:13.893Z,19.25
2023-03-24T16:25:41.571Z,19.34
2023-03-24T16:28:15.399Z,19.01
2023-03-24T16:30:47.419Z,18.54
2023-03-24T16:33:15.368Z,18.58
2023-03-24T16:35:42.359Z,18.80
2023-03-24T16:38:13.286Z,18.61
2023-03-24T16:40:51.491Z,17.69
2023-03-24T16:43:25.496Z,18.08
2023-03-24T16:45:52.398Z,18.21
2023-03-24T16:48:19.248Z,17.30
2023-03-24T16:50:51.871Z,17.38
2023-03-24T16:53:19.677Z,17.09
2023-03-24T16:55:47.814Z,17.60
2023-03-24T16:58:18.281Z,17.66
2023-03-24T17:00:46.051Z,16.81
2023-03-24T17:03:14.219Z,16.95
2023-03-24T17:05:51.436Z,16.64
2023-03-24T17:08:20.259Z,16.60
2023-03-24T17:10:51.569Z,17.32
2023-03-24T17:13:21.394Z,16.87
2023-03-24T17:15:48.604Z,17.19
2023-03-24T17:18:16.504Z,16.27
2023-03-24T17:20:43.929Z,16.37
2023-03-24T17:23:13.765Z,16.21
2023-03-24T17:25:41.122Z,16.78
2023-03-24T17:28:17.898Z,16.76
2023-03-24T17:30:45.187Z,16.37
2023-03-24T17:33:13.856Z,16.15
2023-03-24T17:35:40.695Z,15.47
2023-03-24T17:38:07.648Z,15.60
2023-03-24T17:40:34.565Z,15.41
2023-03-24T17:43:01.395Z,15.01
2023-03-24T17:45:28.202Z,15.19
2023-03-24T17:47:55.606Z,15.21
2023-03-24T17:50:22.436Z,14.98
2023-03-24T17:52:49.924Z,14.84
2023-03-24T17:55:17.875Z,15.27
2023-03-24T17:57:45.277Z,14.61
2023-03-24T18:00:15.022Z,14.12
2023-03-24T18:02:44.087Z,14.77
2023-03-24T18:05:12.679Z,13.92
2023-03-24T18:07:40.354Z,14.50
2023-03-24T18:10:08.423Z,14.40
2023-03-24T18:12:37.045Z,14.25
2023-03-24T18:15:05.482Z,14.19
2023-03-24T18:17:33.237Z,13.79
2023-03-24T18:20:10.396Z,13.82
2023-03-24T18:25:10.481Z,13.27
2023-03-24T18:27:37.875Z,13.15
2023-03-24T18:30:06.528Z,12.73
2023-03-24T18:32:34.071Z,12.79
2023-03-24T18:35:00.968Z,13.08
2023-03-24T18:37:28.892Z,12.99
2023-03-24T18:39:55.571Z,13.01
2023-03-24T18:42:22.373Z,12.96
2023-03-24T18:44:49.074Z,13.19
2023-03-24T18:47:16.550Z,12.71
2023-03-24T18:49:43.461Z,13.07
2023-03-24T18:52:10.268Z,12.97
2023-03-24T18:54:36.952Z,12.91
2023-03-24T18:57:03.731Z,12.34
2023-03-24T18:59:31.854Z,12.87
2023-03-24T19:02:00.282Z,12.43
2023-03-24T19:04:27.440Z,12.44
2023-03-24T19:06:54.444Z,12.67
2023-03-24T19:09:22.944Z,12.79
2023-03-24T19:11:50.086Z,12.68
2023-03-24T19:14:16.725Z,12.73
2023-03-24T19:16:43.469Z,12.53
2023-03-24T19:19:10.208Z,12.69
2023-03-24T19:21:36.843Z,12.45
2023-03-24T19:24:03.576Z,12.69
2023-03-24T19:26:30.410Z,12.65
2023-03-24T19:29:00.049Z,12.35
2023-03-24T19:31:26.656Z,12.58
2023-03-24T19:33:53.739Z,12.06
2023-03-24T19:36:20.493Z,12.26
2023-03-24T19:38:47.219Z,12.36
2023-03-24T19:41:15.553Z,12.35
2023-03-24T19:43:42.932Z,12.52
2023-03-24T19:46:09.790Z,12.40
2023-03-24T19:48:36.935Z,12.25
2023-03-24T19:51:04.295Z,12.30
2023-03-24T19:53:31.296Z,12.20
2023-03-24T19:55:58.896Z,12.32
2023-03-24T19:58:25.829Z,11.99
2023-03-24T20:00:53.403Z,11.78
2023-03-24T20:03:20.533Z,11.87
2023-03-24T20:05:48.013Z,11.95
2023-03-24T20:08:15.492Z,11.74
2023-03-24T20:10:42.194Z,11.82
2023-03-24T20:13:10.078Z,11.70
2023-03-24T20:15:37.140Z,11.52
2023-03-24T20:18:04.054Z,11.52
2023-03-24T20:20:30.767Z,11.76
2023-03-24T20:22:57.478Z,11.67
2023-03-24T20:25:24.255Z,11.39
2023-03-24T20:27:51.086Z,11.21
2023-03-24T20:30:20.287Z,11.59
2023-03-24T20:32:47.295Z,11.13
2023-03-24T20:35:14.165Z,11.40
2023-03-24T20:37:41.043Z,10.91
2023-03-24T20:40:09.707Z,11.24
2023-03-24T20:42:37.396Z,11.15
2023-03-24T20:45:06.091Z,11.12
2023-03-24T20:47:33.030Z,11.03
2023-03-24T20:49:59.785Z,10.53
2023-03-24T20:52:27.309Z,10.76
2023-03-24T20:54:54.282Z,10.89
2023-03-24T20:57:21.115Z,10.53
2023-03-24T20:59:48.783Z,10.20
2023-03-24T21:02:16.008Z,10.57
2023-03-24T21:04:43.437Z,10.73
2023-03-24T21:07:10.117Z,10.57
2023-03-24T21:09:37.214Z,10.72
2023-03-24T21:12:06.709Z,10.57
2023-03-24T21:14:33.789Z,10.77
2023-03-24T21:17:01.614Z,10.51
2023-03-24T21:19:29.102Z,10.88
2023-03-24T21:21:56.241Z,10.83
2023-03-24T21:24:24.444Z,10.83
2023-03-24T21:26:53.882Z,10.45
2023-03-24T21:29:22.653Z,10.84
2023-03-24T21:31:49.936Z,10.75
2023-03-24T21:34:16.778Z,10.71
2023-03-24T21:36:43.427Z,10.62
2023-03-24T21:39:12.174Z,10.13
2023-03-24T21:41:39.438Z,10.63
2023-03-24T21:44:09.410Z,10.64
2023-03-24T21:46:37.127Z,10.54
2023-03-24T21:49:05.220Z,10.47
2023-03-24T21:51:34.460Z,10.27
2023-03-24T21:54:04.646Z,9.68
2023-03-24T21:56:33.261Z,10.33
2023-03-24T21:59:00.499Z,9.86
2023-03-24T22:01:27.559Z,9.86
2023-03-24T22:03:54.774Z,10.01
2023-03-24T22:06:22.805Z,10.04
2023-03-24T22:08:49.991Z,9.78
2023-03-24T22:11:18.866Z,9.84
2023-03-24T22:13:46.586Z,9.99
2023-03-24T22:16:14.154Z,9.84
2023-03-24T22:18:41.048Z,9.65
2023-03-24T22:21:09.467Z,9.10
2023-03-24T22:23:39.602Z,9.36
2023-03-24T22:26:09.573Z,9.19
2023-03-24T22:28:36.742Z,9.06
2023-03-24T22:31:08.623Z,9.12
2023-03-24T22:33:35.846Z,8.47
2023-03-24T22:36:03.538Z,8.60
2023-03-24T22:38:31.233Z,8.35
2023-03-24T22:41:03.050Z,8.89
2023-03-24T22:43:30.779Z,8.64
2023-03-24T22:45:57.686Z,8.50
2023-03-24T22:48:24.592Z,8.93
2023-03-24T22:50:52.352Z,8.23
2023-03-24T22:53:19.116Z,8.65
2023-03-24T22:55:45.926Z,8.83
2023-03-24T22:58:13.924Z,8.42
2023-03-24T23:00:42.392Z,8.32
2023-03-24T23:03:10.018Z,8.11
2023-03-24T23:05:45.728Z,8.52
2023-03-24T23:08:15.324Z,8.36
2023-03-24T23:10:47.824Z,8.79
2023-03-24T23:13:17.150Z,8.40
2023-03-24T23:15:44.271Z,8.72
2023-03-24T23:18:11.918Z,8.52
2023-03-24T23:20:38.632Z,8.73
2023-03-24T23:23:07.074Z,8.58
2023-03-24T23:25:39.116Z,8.65
2023-03-24T23:28:05.898Z,8.45
2023-03-24T23:30:32.876Z,8.04
2023-03-24T23:32:59.771Z,8.38
2023-03-24T23:35:26.620Z,8.24
2023-03-24T23:37:53.535Z,8.28
2023-03-24T23:40:20.321Z,8.24
2023-03-24T23:42:48.677Z,8.27
2023-03-24T23:45:20.492Z,8.10
2023-03-24T23:47:50.409Z,7.71
2023-03-24T23:50:18.643Z,7.99
2023-03-24T23:52:45.690Z,8.00
2023-03-24T23:55:17.683Z,7.97
2023-03-24T23:57:45.519Z,8.13
